Time;durP1;ratioP1;P1;durP2;ratioP2;P2;SDS_P1;SDS_P2;PMS_P1;PMS_P2;Temp;Humidity;BMP_temperature;BMP_pressure;BME280_temperature;BME280_humidity;BME280_pressure;Samples;Min_cycle;Max_cycle;Signal;HPM_P1;HPM_P2
2023/11/03 00:00:00;;;;;;;2.40;1.20;;;;;;;18.12;54.64;98119.44;4977519;28;20104;-78
2023/11/03 00:02:25;;;;;;;2.60;1.00;;;;;;;18.12;54.80;98119.44;4978801;28;20379;-76
2023/11/03 00:04:52;;;;;;;2.25;1.05;;;;;;;18.11;54.48;98126.56;4978354;28;20113;-78
2023/11/03 00:07:18;;;;;;;4.82;1.27;;;;;;;18.08;54.70;98108.44;4978305;28;20109;-75
2023/11/03 00:09:44;;;;;;;4.85;1.23;;;;;;;18.11;54.61;98104.63;4976928;28;20026;-75
2023/11/03 00:12:10;;;;;;;2.47;1.00;;;;;;;18.11;54.77;98101.97;4962713;28;20087;-77
2023/11/03 00:14:36;;;;;;;3.50;1.10;;;;;;;18.07;54.74;98080.38;4978466;28;20038;-76
2023/11/03 00:17:01;;;;;;;4.97;1.20;;;;;;;18.10;54.61;98080.00;4977932;28;20027;-77
2023/11/03 00:19:27;;;;;;;4.35;1.27;;;;;;;18.06;54.82;98068.19;4978454;28;20536;-77
2023/11/03 00:21:53;;;;;;;3.17;1.20;;;;;;;18.07;54.77;98062.72;4946272;28;20027;-76
2023/11/03 00:24:19;;;;;;;1.63;1.10;;;;;;;18.05;54.85;98043.56;4995418;28;20410;-76
2023/11/03 00:26:45;;;;;;;2.80;1.17;;;;;;;18.02;55.09;98040.50;4961353;28;20125;-76
2023/11/03 00:29:10;;;;;;;3.05;1.40;;;;;;;18.04;54.76;98049.88;4976938;28;20125;-76
2023/11/03 00:31:37;;;;;;;4.60;1.40;;;;;;;18.02;54.80;98045.78;4978043;28;20507;-76
2023/11/03 00:34:05;;;;;;;3.20;1.35;;;;;;;18.03;54.92;98053.50;4977928;28;20027;-76
2023/11/03 00:36:31;;;;;;;3.17;1.10;;;;;;;18.03;54.88;98047.41;4978282;28;20030;-76
2023/11/03 00:38:58;;;;;;;5.40;1.20;;;;;;;18.02;55.03;98038.66;4961655;28;20548;-76
2023/11/03 00:41:23;;;;;;;2.65;1.13;;;;;;;17.98;54.64;98036.56;4962029;28;20030;-77
2023/11/03 00:43:50;;;;;;;5.15;1.15;;;;;;;17.99;55.08;98041.66;4995047;28;20501;-77
2023/11/03 00:46:16;;;;;;;4.80;1.38;;;;;;;17.96;55.04;98034.09;4962539;28;20567;-77
2023/11/03 00:48:42;;;;;;;2.45;1.27;;;;;;;17.96;55.37;98033.28;4961293;28;20092;-77
2023/11/03 00:51:08;;;;;;;2.15;1.00;;;;;;;17.98;55.30;98036.56;4961081;28;20034;-77
2023/11/03 00:53:37;;;;;;;2.28;1.20;;;;;;;17.95;55.21;98035.13;4995191;28;20407;-79
2023/11/03 00:56:04;;;;;;;2.38;1.13;;;;;;;17.93;55.41;98031.00;4962084;28;20038;-79
2023/11/03 00:58:30;;;;;;;2.63;1.23;;;;;;;17.92;55.26;98032.00;4994869;28;20034;-79
2023/11/03 01:00:56;;;;;;;3.50;1.30;;;;;;;17.88;55.39;98024.47;4977862;28;20105;-78
2023/11/03 01:03:23;;;;;;;2.70;1.20;;;;;;;17.93;55.33;98025.72;4977601;28;20129;-79
2023/11/03 01:05:49;;;;;;;6.90;1.63;;;;;;;17.90;55.36;98011.91;4961964;28;20490;-78
2023/11/03 01:08:14;;;;;;;3.35;1.30;;;;;;;17.89;55.56;98020.81;4961532;28;20169;-78
2023/11/03 01:10:40;;;;;;;4.55;1.30;;;;;;;17.94;55.55;98028.19;4961461;28;20026;-77
2023/11/03 01:13:10;;;;;;;1.92;1.23;;;;;;;17.95;55.47;98029.00;4976894;28;20061;-77
2023/11/03 01:15:36;;;;;;;4.53;1.48;;;;;;;17.92;55.54;98027.56;4961771;28;20050;-77
2023/11/03 01:18:02;;;;;;;3.55;1.40;;;;;;;17.88;55.69;98018.34;4960950;28;20053;-77
2023/11/03 01:20:27;;;;;;;4.70;2.10;;;;;;;17.93;55.66;98031.81;4994662;28;20030;-77
2023/11/03 01:22:54;;;;;;;3.38;1.48;;;;;;;17.88;55.56;98029.75;4977330;28;20030;-77
2023/11/03 01:25:21;;;;;;;4.03;1.23;;;;;;;17.89;55.84;98030.56;4960508;28;20042;-77
2023/11/03 01:27:48;;;;;;;2.95;1.50;;;;;;;17.87;55.69;98043.09;4977738;28;20109;-78
2023/11/03 01:30:14;;;;;;;7.85;1.75;;;;;;;17.87;55.88;98048.38;4944070;28;20140;-78
2023/11/03 01:32:39;;;;;;;4.75;1.33;;;;;;;17.90;55.76;98062.06;4977272;28;20026;-79
2023/11/03 01:35:06;;;;;;;4.13;1.70;;;;;;;17.87;55.64;98056.31;4960455;28;20112;-79
2023/11/03 01:37:33;;;;;;;5.90;1.35;;;;;;;17.89;55.88;98060.41;4976371;28;20034;-78
2023/11/03 01:39:58;;;;;;;4.60;1.92;;;;;;;17.89;56.01;98070.16;4976120;28;20050;-79
2023/11/03 01:42:25;;;;;;;4.20;1.60;;;;;;;17.89;56.07;98072.81;4977082;28;20085;-79
2023/11/03 01:44:51;;;;;;;2.63;1.50;;;;;;;17.89;56.00;98067.53;4943941;28;20124;-78
2023/11/03 01:47:17;;;;;;;4.97;1.73;;;;;;;17.88;56.00;98058.78;4959403;28;20097;-78
2023/11/03 01:49:44;;;;;;;3.65;1.50;;;;;;;17.86;56.02;98046.72;4993813;28;20038;-78
2023/11/03 01:52:10;;;;;;;4.55;1.65;;;;;;;17.88;55.98;98058.78;4963977;28;20034;-78
2023/11/03 01:54:36;;;;;;;2.60;1.23;;;;;;;17.87;56.15;98057.09;4976584;28;20026;-80
2023/11/03 01:57:01;;;;;;;3.95;1.42;;;;;;;17.87;56.03;98051.81;4946756;28;20461;-81
2023/11/03 01:59:27;;;;;;;4.45;1.70;;;;;;;17.84;56.04;98061.94;4961476;28;20030;-81
2023/11/03 02:01:52;;;;;;;4.63;1.40;;;;;;;17.82;56.31;98056.84;4943941;28;20027;-80
2023/11/03 02:04:19;;;;;;;5.13;1.70;;;;;;;17.82;56.20;98056.84;4958485;28;20069;-81
2023/11/03 02:06:45;;;;;;;4.30;1.40;;;;;;;17.84;56.37;98067.22;4960211;28;20032;-79
2023/11/03 02:09:11;;;;;;;5.20;1.70;;;;;;;17.84;56.49;98065.38;4976092;28;20113;-81
2023/11/03 02:11:48;;;;;;;4.45;1.85;;;;;;;17.84;56.33;98067.22;4959516;28;20100;-80
2023/11/03 02:14:14;;;;;;;3.65;1.75;;;;;;;17.80;56.07;98064.09;4962342;28;20030;-80
2023/11/03 02:16:39;;;;;;;4.00;1.58;;;;;;;17.80;56.29;98058.81;4975931;28;20049;-80
2023/11/03 02:19:08;;;;;;;5.28;1.60;;;;;;;17.83;56.30;98055.00;4960091;28;20031;-80
2023/11/03 02:21:37;;;;;;;4.22;1.80;;;;;;;17.81;56.32;98055.19;4960106;28;20022;-80
2023/11/03 02:24:05;;;;;;;4.05;1.92;;;;;;;17.78;56.30;98052.91;4993164;28;20114;-80
2023/11/03 02:26:30;;;;;;;5.60;1.85;;;;;;;17.82;56.53;98054.19;4975814;28;20033;-79
2023/11/03 02:28:56;;;;;;;4.18;1.75;;;;;;;17.82;56.62;98042.78;4975242;28;20046;-78
2023/11/03 02:31:21;;;;;;;5.90;1.90;;;;;;;17.76;56.47;98017.13;4993252;28;20513;-77
2023/11/03 02:33:47;;;;;;;5.13;1.45;;;;;;;17.77;56.52;98011.66;4960069;28;20113;-78
2023/11/03 02:36:15;;;;;;;3.55;1.83;;;;;;;17.76;56.62;98014.47;4976003;28;20045;-77
2023/11/03 02:38:40;;;;;;;2.45;1.40;;;;;;;17.74;56.77;98027.84;4943813;28;20100;-78
2023/11/03 02:41:06;;;;;;;2.95;1.40;;;;;;;17.76;56.71;98044.34;4975553;28;20022;-79
2023/11/03 02:43:31;;;;;;;5.20;1.95;;;;;;;17.76;56.67;98060.19;4975928;28;20122;-80
2023/11/03 02:45:57;;;;;;;4.20;1.60;;;;;;;17.75;56.70;98050.63;4974401;28;20061;-80
2023/11/03 02:48:22;;;;;;;3.53;1.20;;;;;;;17.76;56.64;98048.78;4976034;28;20054;-77
2023/11/03 02:50:48;;;;;;;3.10;1.48;;;;;;;17.77;56.66;98058.38;4959788;28;20481;-78
2023/11/03 02:53:13;;;;;;;3.90;1.50;;;;;;;17.75;56.56;98053.25;4975455;28;20026;-78
2023/11/03 02:55:39;;;;;;;4.18;1.30;;;;;;;17.75;56.65;98039.25;4993198;28;20031;-78
2023/11/03 02:58:05;;;;;;;5.63;1.55;;;;;;;17.76;56.68;98052.28;4992968;28;20030;-78
2023/11/03 03:00:30;;;;;;;2.45;1.30;;;;;;;17.76;56.69;98046.16;4993001;28;20031;-78
2023/11/03 03:02:57;;;;;;;4.30;1.50;;;;;;;17.76;56.56;98030.31;4994434;28;20037;-79
2023/11/03 03:05:23;;;;;;;7.38;1.80;;;;;;;17.74;56.76;98025.22;4979541;28;20541;-79
2023/11/03 03:07:48;;;;;;;7.43;1.50;;;;;;;17.75;56.94;98028.69;4979389;28;20041;-79
2023/11/03 03:10:14;;;;;;;4.40;1.40;;;;;;;17.71;56.76;98026.41;4978911;28;20038;-78
2023/11/03 03:12:41;;;;;;;4.10;1.40;;;;;;;17.75;56.82;98018.94;4947892;28;20468;-78
2023/11/03 03:15:08;;;;;;;2.83;1.35;;;;;;;17.70;56.61;98016.84;4996822;28;20035;-78
2023/11/03 03:17:34;;;;;;;5.32;1.80;;;;;;;17.75;56.84;98008.38;4979542;28;20022;-78
2023/11/03 03:19:59;;;;;;;5.55;1.55;;;;;;;17.75;56.85;98026.06;4996555;28;20042;-78
2023/11/03 03:22:25;;;;;;;3.17;1.60;;;;;;;17.71;56.86;98022.94;4963082;28;20410;-78
2023/11/03 03:24:50;;;;;;;4.05;1.33;;;;;;;17.69;56.82;98036.31;4947234;28;20046;-78
2023/11/03 03:27:16;;;;;;;3.38;1.50;;;;;;;17.75;56.91;98034.78;4963558;28;20038;-78
2023/11/03 03:29:41;;;;;;;5.45;1.92;;;;;;;17.72;56.96;98033.31;4979165;28;20034;-78
2023/11/03 03:32:07;;;;;;;5.25;1.73;;;;;;;17.74;56.93;98030.50;4996366;28;20054;-79
2023/11/03 03:34:32;;;;;;;3.03;1.40;;;;;;;17.71;57.11;98020.28;4979289;28;20041;-78
2023/11/03 03:36:59;;;;;;;5.47;1.80;;;;;;;17.73;57.04;98018.31;4996396;28;20037;-78
2023/11/03 03:39:25;;;;;;;6.47;1.73;;;;;;;17.70;56.87;98013.41;4996331;28;20121;-79
2023/11/03 03:41:53;;;;;;;6.82;1.48;;;;;;;17.71;57.06;98013.22;4954971;28;20035;-77
2023/11/03 03:44:19;;;;;;;4.60;1.50;;;;;;;17.68;57.10;98012.75;4962510;28;20074;-78
2023/11/03 03:46:44;;;;;;;5.13;1.75;;;;;;;17.68;57.24;98016.22;4986034;28;20550;-78
2023/11/03 03:49:10;;;;;;;5.10;1.67;;;;;;;17.68;57.13;98008.31;4961758;28;20129;-78
2023/11/03 03:51:35;;;;;;;5.15;1.70;;;;;;;17.71;57.13;97988.63;4965691;28;20018;-80
2023/11/03 03:54:01;;;;;;;4.65;1.80;;;;;;;17.71;57.10;97989.47;4963481;28;20045;-79
2023/11/03 03:56:26;;;;;;;5.30;1.80;;;;;;;17.70;57.23;97989.66;4978138;28;20406;-77
2023/11/03 03:58:55;;;;;;;5.43;1.80;;;;;;;17.70;57.27;97992.28;4962444;28;20034;-79
2023/11/03 04:01:22;;;;;;;7.28;1.60;;;;;;;17.70;57.26;97992.28;4962689;28;20030;-78
2023/11/03 04:03:48;;;;;;;4.68;1.73;;;;;;;17.70;57.36;97997.56;4978860;28;20037;-79
2023/11/03 04:06:13;;;;;;;5.93;1.98;;;;;;;17.67;57.30;97982.91;4978908;28;20041;-80
2023/11/03 04:08:39;;;;;;;5.82;1.60;;;;;;;17.70;57.28;97984.38;4962459;28;20031;-78
2023/11/03 04:11:05;;;;;;;4.28;1.50;;;;;;;17.65;57.30;97973.53;4995657;28;20430;-79
2023/11/03 04:13:31;;;;;;;4.15;1.48;;;;;;;17.65;57.33;97969.06;4978493;28;20030;-78
2023/11/03 04:15:56;;;;;;;3.92;1.50;;;;;;;17.68;57.15;97976.63;4995071;28;20089;-80
2023/11/03 04:18:22;;;;;;;3.35;1.50;;;;;;;17.68;57.45;97987.19;4945878;28;20101;-78
2023/11/03 04:20:48;;;;;;;4.65;1.77;;;;;;;17.66;57.53;97972.53;4995630;28;20030;-78
2023/11/03 04:23:13;;;;;;;7.82;1.58;;;;;;;17.58;57.45;97960.22;4977120;28;20042;-79
2023/11/03 04:25:39;;;;;;;5.03;1.52;;;;;;;17.66;57.39;97994.47;4992579;28;20023;-79
2023/11/03 04:28:06;;;;;;;3.45;1.77;;;;;;;17.67;57.24;97984.72;4945632;28;20038;-80
2023/11/03 04:30:35;;;;;;;5.60;1.48;;;;;;;17.63;57.32;97959.69;4960841;28;20470;-79
2023/11/03 04:33:04;;;;;;;5.72;1.83;;;;;;;17.62;57.46;97964.16;4945289;28;20038;-79
2023/11/03 04:35:29;;;;;;;;;;;;;;;17.65;57.65;97965.63;4978427;28;20030;-79
2023/11/03 04:37:55;;;;;;;9.40;2.17;;;;;;;17.62;57.57;97965.97;4977739;28;19910;-79
2023/11/03 04:40:21;;;;;;;8.20;2.85;;;;;;;17.60;57.75;97955.59;4959112;28;20042;-80
2023/11/03 04:42:50;;;;;;;12.43;2.63;;;;;;;17.58;57.70;97949.66;4961816;28;20038;-77
2023/11/03 04:45:18;;;;;;;5.90;2.30;;;;;;;17.58;57.79;97946.22;4944805;28;20128;-78
2023/11/03 04:47:43;;;;;;;9.55;2.50;;;;;;;17.61;57.90;97941.38;4983352;28;20041;-77
2023/11/03 04:50:10;;;;;;;9.73;3.53;;;;;;;17.57;57.93;97937.50;4980589;28;20125;-80
2023/11/03 04:52:37;;;;;;;21.42;2.80;;;;;;;17.64;59.44;97938.38;4965117;28;20070;-76
2023/11/03 04:55:09;;;;;;;7.50;2.60;;;;;;;17.82;61.01;97953.88;4957934;28;20034;-80
2023/11/03 04:57:35;;;;;;;6.05;2.42;;;;;;;17.88;60.46;97960.25;4945485;28;20030;-78
2023/11/03 05:00:01;;;;;;;11.63;2.45;;;;;;;18.02;61.44;97963.91;4973455;28;20039;-76
2023/11/03 05:02:28;;;;;;;6.68;2.80;;;;;;;18.00;60.77;97965.91;4946059;28;20035;-76
2023/11/03 05:04:54;;;;;;;8.70;2.50;;;;;;;17.98;60.19;97952.91;4957813;28;20031;-78
2023/11/03 05:07:21;;;;;;;9.18;2.42;;;;;;;18.04;62.83;97943.41;4946582;28;20031;-77
2023/11/03 05:09:47;;;;;;;13.60;2.38;;;;;;;18.21;62.46;97957.22;4947053;28;20081;-85
2023/11/03 05:12:13;;;;;;;13.02;2.40;;;;;;;18.32;62.18;97966.50;4941397;28;20018;-84
2023/11/03 05:14:38;;;;;;;11.15;3.30;;;;;;;18.31;61.39;97963.06;4925465;28;20041;-72
2023/11/03 05:17:05;;;;;;;12.77;2.67;;;;;;;18.36;61.21;97976.53;4983069;28;20030;-71
2023/11/03 05:19:32;;;;;;;9.07;2.75;;;;;;;18.37;60.89;97975.50;4977209;28;20030;-73
2023/11/03 05:21:58;;;;;;;5.68;2.70;;;;;;;18.44;60.89;97970.31;4960161;28;20173;-71
2023/11/03 05:24:23;;;;;;;16.60;2.70;;;;;;;18.49;61.16;97975.03;4976460;28;20541;-69
2023/11/03 05:26:49;;;;;;;9.80;2.53;;;;;;;18.43;60.37;97971.31;4991831;28;20465;-72
2023/11/03 05:29:14;;;;;;;10.02;2.88;;;;;;;18.39;60.55;97985.88;4960111;28;20038;-72
2023/11/03 05:31:40;;;;;;;7.88;2.63;;;;;;;18.35;59.86;98008.41;4944170;28;20030;-72
2023/11/03 05:34:05;;;;;;;10.13;2.83;;;;;;;18.27;59.47;98006.69;4975952;28;20096;-70
2023/11/03 05:36:31;;;;;;;8.30;2.88;;;;;;;18.14;59.42;98007.34;4993795;28;20555;-73
2023/11/03 05:38:57;;;;;;;10.23;2.78;;;;;;;18.13;59.43;98005.69;4976393;28;20026;-71
2023/11/03 05:41:24;;;;;;;7.15;3.10;;;;;;;18.07;59.40;98003.78;4993540;28;20037;-70
2023/11/03 05:43:50;;;;;;;11.73;3.50;;;;;;;18.04;59.17;98017.34;4960208;28;20048;-71
2023/11/03 05:46:16;;;;;;;8.80;3.13;;;;;;;18.01;59.25;98020.34;4976251;28;20474;-70
2023/11/03 05:48:41;;;;;;;9.75;3.55;;;;;;;17.98;59.11;98026.84;4976295;28;20065;-72
2023/11/03 05:51:07;;;;;;;24.35;4.47;;;;;;;17.99;61.28;98014.44;4976033;28;20093;-70
2023/11/03 05:53:32;;;;;;;8.35;3.70;;;;;;;18.03;60.57;98011.25;4976327;28;20033;-72
2023/11/03 05:55:58;;;;;;;10.40;3.78;;;;;;;18.01;60.22;97996.59;4959390;28;20046;-72
2023/11/03 05:58:24;;;;;;;17.27;3.70;;;;;;;18.06;59.56;97994.25;4975987;28;20461;-73
2023/11/03 06:00:50;;;;;;;6.35;2.83;;;;;;;18.09;59.29;97980.66;4976609;28;20034;-75
2023/11/03 06:03:15;;;;;;;10.98;3.47;;;;;;;18.08;58.96;97971.09;4959978;28;20084;-74
2023/11/03 06:05:41;;;;;;;11.98;3.25;;;;;;;18.11;58.94;97975.19;4961844;28;20541;-74
2023/11/03 06:08:06;;;;;;;7.75;3.35;;;;;;;18.11;58.64;97969.91;4993298;28;20432;-75
2023/11/03 06:10:32;;;;;;;7.82;3.30;;;;;;;18.11;58.59;97964.63;4958087;28;20031;-75
2023/11/03 06:12:57;;;;;;;8.82;3.40;;;;;;;18.17;58.50;97972.63;4942446;28;20038;-75
2023/11/03 06:15:23;;;;;;;7.80;3.63;;;;;;;18.16;58.45;97971.00;4959033;28;20054;-75
2023/11/03 06:17:49;;;;;;;9.77;4.00;;;;;;;18.14;58.27;97959.81;4975225;28;20114;-74
2023/11/03 06:20:14;;;;;;;8.05;3.58;;;;;;;18.20;57.97;97963.50;4975359;28;20042;-76
2023/11/03 06:22:40;;;;;;;11.82;3.45;;;;;;;18.19;58.16;97961.88;4975353;28;20466;-76
2023/11/03 06:25:07;;;;;;;10.00;3.80;;;;;;;18.18;58.26;97958.41;4959572;28;20150;-75
2023/11/03 06:27:32;;;;;;;8.68;3.72;;;;;;;18.16;58.19;97957.78;4958951;28;20404;-76
2023/11/03 06:29:58;;;;;;;9.13;4.05;;;;;;;18.17;58.01;97974.44;4975097;28;20059;-75
2023/11/03 06:32:23;;;;;;;7.47;3.72;;;;;;;18.18;58.22;97992.75;4993169;28;20113;-75
2023/11/03 06:34:49;;;;;;;7.40;3.95;;;;;;;18.14;58.13;97988.84;4992987;28;20556;-74
2023/11/03 06:37:14;;;;;;;7.47;4.25;;;;;;;18.13;58.20;97984.56;4975090;28;20101;-75
2023/11/03 06:39:40;;;;;;;7.60;3.80;;;;;;;18.19;58.08;97994.41;4959402;28;20084;-75
2023/11/03 06:42:06;;;;;;;11.05;4.30;;;;;;;18.23;57.90;97979.81;4959314;28;20080;-76
2023/11/03 06:44:32;;;;;;;7.63;4.18;;;;;;;18.27;57.91;97970.50;4959333;28;20046;-76
2023/11/03 06:46:59;;;;;;;11.23;4.28;;;;;;;18.32;57.56;97962.03;4959607;28;20022;-72
2023/11/03 06:49:24;;;;;;;9.90;4.35;;;;;;;18.46;57.42;97963.00;4975653;28;20088;-75
2023/11/03 06:51:50;;;;;;;9.40;4.45;;;;;;;18.43;57.53;97961.53;4975316;28;20030;-76
2023/11/03 06:54:15;;;;;;;9.82;4.57;;;;;;;18.42;57.30;97956.44;4959278;28;20042;-75
2023/11/03 06:56:42;;;;;;;8.07;4.30;;;;;;;18.39;57.52;97962.09;4943407;28;20057;-76
2023/11/03 06:59:08;;;;;;;11.82;4.60;;;;;;;18.38;57.48;97968.41;4992737;28;20035;-74
2023/11/03 07:01:34;;;;;;;7.22;4.50;;;;;;;18.39;57.34;97968.22;4959110;28;20025;-75
2023/11/03 07:04:00;;;;;;;8.50;4.70;;;;;;;18.37;57.38;97964.13;4975334;28;20030;-74
2023/11/03 07:06:25;;;;;;;9.70;4.57;;;;;;;18.37;57.57;97956.19;4992520;28;20501;-74
2023/11/03 07:08:51;;;;;;;11.23;4.65;;;;;;;18.38;57.38;97956.00;4959024;28;20117;-75
2023/11/03 07:11:16;;;;;;;11.70;4.60;;;;;;;18.43;57.24;97950.16;4975036;28;20022;-75
2023/11/03 07:13:43;;;;;;;7.25;4.40;;;;;;;18.52;56.98;97949.06;4974846;28;20062;-75
2023/11/03 07:16:09;;;;;;;10.10;5.00;;;;;;;18.55;56.92;97935.47;4975330;28;20026;-73
2023/11/03 07:18:35;;;;;;;9.25;4.88;;;;;;;18.65;56.78;97932.50;4975384;28;20158;-74
2023/11/03 07:21:02;;;;;;;10.68;6.32;;;;;;;18.69;56.87;97927.66;4958450;28;20501;-73
2023/11/03 07:23:28;;;;;;;9.38;5.00;;;;;;;18.66;56.94;97942.09;4943276;28;20030;-75
2023/11/03 07:25:56;;;;;;;9.65;6.00;;;;;;;18.57;57.22;97938.72;4958322;28;20039;-74
2023/11/03 07:28:23;;;;;;;9.13;5.50;;;;;;;18.62;57.11;97948.75;4975175;28;20044;-74
2023/11/03 07:30:50;;;;;;;12.27;5.82;;;;;;;18.69;57.04;97944.34;4992433;28;20041;-75
2023/11/03 07:33:17;;;;;;;9.88;5.93;;;;;;;18.66;57.05;97946.53;4992334;28;20034;-76
2023/11/03 07:35:42;;;;;;;12.15;6.50;;;;;;;18.68;56.87;97948.00;4975203;28;20039;-74
2023/11/03 07:38:09;;;;;;;11.13;5.80;;;;;;;18.69;56.74;97951.44;4959396;28;20045;-75
2023/11/03 07:40:34;;;;;;;11.48;5.95;;;;;;;18.69;56.69;97957.56;4975170;28;20070;-74
2023/11/03 07:42:59;;;;;;;12.23;6.00;;;;;;;18.70;56.68;97959.19;4975543;28;20124;-74
2023/11/03 07:45:27;;;;;;;9.90;5.63;;;;;;;18.70;56.86;97955.72;4992774;28;20073;-74
2023/11/03 07:47:52;;;;;;;13.90;6.00;;;;;;;18.66;56.70;97965.03;4974853;28;20042;-76
2023/11/03 07:50:18;;;;;;;11.85;5.90;;;;;;;18.62;56.86;97954.03;4976769;28;20030;-75
2023/11/03 07:52:44;;;;;;;13.55;6.10;;;;;;;18.65;56.75;97956.28;4946461;28;20038;-75
2023/11/03 07:55:15;;;;;;;15.38;6.38;;;;;;;18.69;56.77;97938.22;4962804;28;20038;-74
2023/11/03 07:57:41;;;;;;;12.25;6.15;;;;;;;18.68;56.85;97931.31;4963885;28;20030;-74
2023/11/03 08:00:10;;;;;;;14.77;6.72;;;;;;;18.68;57.06;97934.78;4962356;28;20022;-76
2023/11/03 08:02:37;;;;;;;10.10;5.97;;;;;;;18.75;56.70;97925.06;4978801;28;20116;-73
2023/11/03 08:05:09;;;;;;;14.02;6.10;;;;;;;18.83;56.46;97910.09;4945861;28;20048;-75
2023/11/03 08:07:35;;;;;;;10.95;6.03;;;;;;;18.86;56.36;97904.47;4978881;28;20026;-74
2023/11/03 08:10:03;;;;;;;11.27;5.68;;;;;;;18.88;56.21;97905.06;4962346;28;20033;-75
2023/11/03 08:12:28;;;;;;;11.23;5.80;;;;;;;18.91;56.26;97910.81;4963047;28;20393;-74
2023/11/03 08:14:55;;;;;;;10.85;6.13;;;;;;;18.91;56.21;97909.97;4995578;28;20034;-76
2023/11/03 08:17:20;;;;;;;16.17;6.05;;;;;;;18.86;56.25;97912.38;4962269;28;20092;-75
2023/11/03 08:19:46;;;;;;;15.20;6.43;;;;;;;18.79;56.69;97926.34;4962008;28;20446;-74
2023/11/03 08:22:11;;;;;;;14.32;7.10;;;;;;;18.71;56.85;97917.72;4978028;28;20474;-74
2023/11/03 08:24:40;;;;;;;11.40;6.88;;;;;;;18.67;56.75;97927.84;4995850;28;20497;-76
2023/11/03 08:27:05;;;;;;;13.38;6.43;;;;;;;18.56;57.11;97931.00;4995351;28;20397;-76
2023/11/03 08:29:31;;;;;;;12.35;6.97;;;;;;;18.51;57.23;97928.09;4977773;28;20038;-75
2023/11/03 08:31:56;;;;;;;13.40;6.75;;;;;;;18.50;57.51;97929.94;4961750;28;20034;-75
2023/11/03 08:34:22;;;;;;;13.70;6.47;;;;;;;18.51;57.56;97925.44;4961675;28;20034;-75
2023/11/03 08:36:47;;;;;;;14.68;7.53;;;;;;;18.52;57.40;97930.56;4945876;28;20031;-76
2023/11/03 08:39:13;;;;;;;12.30;6.70;;;;;;;18.47;57.56;97932.94;4995036;28;20030;-76
2023/11/03 08:41:39;;;;;;;13.35;7.15;;;;;;;18.47;57.43;97930.31;4945758;28;20060;-76
2023/11/03 08:44:05;;;;;;;17.30;7.05;;;;;;;18.46;57.24;97920.72;4977167;28;20048;-75
2023/11/03 08:46:31;;;;;;;13.88;7.22;;;;;;;18.53;57.28;97926.06;4945892;28;20034;-77
2023/11/03 08:48:59;;;;;;;16.20;7.20;;;;;;;18.58;57.15;97934.25;4962029;28;20545;-75
2023/11/03 08:51:25;;;;;;;13.80;7.10;;;;;;;18.60;57.18;97933.06;4962003;28;20113;-76
2023/11/03 08:53:50;;;;;;;12.68;6.65;;;;;;;18.60;57.02;97922.50;4961553;28;20026;-74
2023/11/03 08:56:16;;;;;;;16.00;6.97;;;;;;;18.59;56.96;97906.81;4976889;28;20050;-75
2023/11/03 08:58:42;;;;;;;12.68;7.03;;;;;;;18.63;57.11;97913.38;4961469;28;20041;-75
2023/11/03 09:01:08;;;;;;;12.00;7.15;;;;;;;18.65;57.01;97905.25;4960996;28;20057;-75
2023/11/03 09:03:35;;;;;;;13.02;7.32;;;;;;;18.71;56.83;97896.59;4961710;28;20485;-75
2023/11/03 09:06:01;;;;;;;22.05;7.35;;;;;;;18.83;56.55;97888.94;4961279;28;20039;-75
2023/11/03 09:08:26;;;;;;;12.25;7.03;;;;;;;18.95;56.33;97892.75;4977643;28;20035;-74
2023/11/03 09:10:52;;;;;;;16.42;7.63;;;;;;;19.05;56.17;97873.88;4944843;28;20129;-74
2023/11/03 09:13:17;;;;;;;15.60;8.07;;;;;;;19.20;55.88;97871.97;4945136;28;20085;-76
2023/11/03 09:15:45;;;;;;;11.10;7.00;;;;;;;19.18;56.01;97863.38;4977194;28;20397;-75
2023/11/03 09:18:11;;;;;;;20.48;8.10;;;;;;;19.23;55.98;97871.59;4961392;28;20548;-75
2023/11/03 09:20:38;;;;;;;16.55;8.40;;;;;;;19.25;55.82;97874.84;4960575;28;20042;-74
2023/11/03 09:23:04;;;;;;;13.35;8.02;;;;;;;19.27;55.61;97856.13;4994321;28;20026;-75
2023/11/03 09:25:30;;;;;;;11.95;8.10;;;;;;;19.32;55.56;97851.06;4960662;28;20130;-74
2023/11/03 09:27:56;;;;;;;19.23;8.45;;;;;;;19.36;55.38;97851.50;4994126;28;20034;-74
2023/11/03 09:30:22;;;;;;;14.27;8.02;;;;;;;19.40;55.45;97844.81;4944505;28;20096;-73
2023/11/03 09:32:48;;;;;;;14.23;8.45;;;;;;;19.47;55.21;97837.72;4959814;28;20034;-76
2023/11/03 09:35:14;;;;;;;11.52;8.13;;;;;;;19.57;54.82;97842.66;4960539;28;20042;-76
2023/11/03 09:37:39;;;;;;;11.25;7.43;;;;;;;19.66;54.76;97830.88;4960027;28;20034;-75
2023/11/03 09:40:09;;;;;;;14.82;8.20;;;;;;;19.75;54.54;97831.50;4960540;28;20034;-76
2023/11/03 09:42:35;;;;;;;14.65;8.07;;;;;;;19.81;54.54;97822.81;4944704;28;20034;-75
2023/11/03 09:45:04;;;;;;;20.83;8.65;;;;;;;19.85;54.46;97800.22;4976529;28;20101;-74
2023/11/03 09:47:29;;;;;;;14.20;7.63;;;;;;;19.96;54.10;97798.84;4961008;28;20030;-77
2023/11/03 09:49:58;;;;;;;12.55;7.47;;;;;;;20.05;53.89;97789.66;4959966;28;20129;-75
2023/11/03 09:52:24;;;;;;;16.92;8.38;;;;;;;20.14;53.78;97772.56;4944728;28;20037;-74
2023/11/03 09:54:50;;;;;;;14.48;8.35;;;;;;;20.29;53.62;97771.56;4960219;28;20038;-74
2023/11/03 09:57:15;;;;;;;10.00;7.40;;;;;;;20.47;53.10;97771.78;4960061;28;20038;-75
2023/11/03 09:59:41;;;;;;;15.38;7.85;;;;;;;20.57;52.71;97768.69;4959299;28;20043;-74
2023/11/03 10:02:15;;;;;;;16.67;7.53;;;;;;;20.69;52.54;97772.41;4960086;28;20513;-75
2023/11/03 10:04:40;;;;;;;12.15;7.50;;;;;;;20.77;52.38;97780.13;4956649;28;20042;-74
2023/11/03 10:07:10;;;;;;;155.77;110.80;;;;;;;20.95;52.78;97770.72;4973100;28;20034;-72
2023/11/03 10:09:36;;;;;;;22.85;14.90;;;;;;;21.21;52.29;97761.09;5004798;28;20037;-73
2023/11/03 10:12:03;;;;;;;21.17;14.25;;;;;;;21.43;51.55;97751.81;4978554;28;20022;-73
2023/11/03 10:14:29;;;;;;;20.25;11.90;;;;;;;21.74;51.33;97757.41;4994633;28;20045;-73
2023/11/03 10:16:57;;;;;;;17.08;10.55;;;;;;;21.91;50.57;97761.19;5006244;28;20030;-75
2023/11/03 10:19:22;;;;;;;16.50;9.25;;;;;;;21.99;49.95;97768.09;4978812;28;20069;-75
2023/11/03 10:21:48;;;;;;;14.68;9.55;;;;;;;22.18;49.81;97748.53;4942366;28;20074;-74
2023/11/03 10:24:17;;;;;;;19.92;8.35;;;;;;;22.47;48.99;97751.63;4977360;28;20061;-71
2023/11/03 10:26:43;;;;;;;13.75;8.50;;;;;;;22.57;48.72;97737.81;4970092;28;20453;-72
2023/11/03 10:29:11;;;;;;;13.68;7.57;;;;;;;22.52;48.61;97735.81;4992456;28;20034;-73
2023/11/03 10:31:37;;;;;;;;;;;;;;;22.54;48.27;97732.94;4986012;28;20045;-72
2023/11/03 10:34:02;;;;;;;11.00;6.78;;;;;;;22.47;48.76;97724.19;4973573;28;19914;-73
2023/11/03 10:36:28;;;;;;;12.68;6.25;;;;;;;22.52;48.33;97727.84;4950720;28;20486;-73
2023/11/03 10:38:54;;;;;;;10.32;5.35;;;;;;;22.95;47.43;97728.84;4946207;28;20593;-73
2023/11/03 10:41:20;;;;;;;10.57;5.95;;;;;;;23.21;46.73;97709.13;4971388;28;20089;-75
2023/11/03 10:43:47;;;;;;;11.55;5.53;;;;;;;23.24;46.58;97716.66;4993091;28;20480;-72
2023/11/03 10:46:20;;;;;;;10.00;5.60;;;;;;;23.26;46.73;97711.94;4962544;28;20026;-72
2023/11/03 10:48:50;;;;;;;11.40;5.93;;;;;;;23.58;45.77;97710.94;4978074;28;20129;-74
2023/11/03 10:51:35;;;;;;;11.10;5.75;;;;;;;23.91;45.16;97697.16;4979176;28;20059;-74
2023/11/03 10:54:01;;;;;;;7.85;4.93;;;;;;;24.05;44.86;97694.25;4995129;28;20037;-72
2023/11/03 10:56:27;;;;;;;12.05;5.70;;;;;;;24.13;44.59;97701.91;5012227;28;20034;-73
2023/11/03 10:58:52;;;;;;;10.68;6.13;;;;;;;24.24;44.57;97701.13;4994912;28;20550;-74
2023/11/03 11:01:29;;;;;;;12.77;6.00;;;;;;;24.33;44.19;97699.72;5012382;28;20030;-74
2023/11/03 11:04:05;;;;;;;15.38;6.53;;;;;;;24.53;43.60;97693.25;4980103;28;20126;-73
2023/11/03 11:06:39;;;;;;;10.35;5.93;;;;;;;24.86;43.08;97710.53;4994774;28;20022;-72
2023/11/03 11:09:10;;;;;;;9.85;5.82;;;;;;;24.85;43.09;97706.25;4979015;28;20065;-74
2023/11/03 11:11:38;;;;;;;8.55;6.22;;;;;;;25.00;42.90;97705.75;4978770;28;20092;-73
2023/11/03 11:14:25;;;;;;;12.45;6.00;;;;;;;24.83;43.17;97695.81;4978011;28;20132;-73
2023/11/03 11:16:54;;;;;;;12.23;6.40;;;;;;;24.78;43.03;97695.72;4994480;28;20113;-73
2023/11/03 11:19:28;;;;;;;10.73;6.80;;;;;;;24.67;43.17;97702.69;4994144;28;20432;-74
2023/11/03 11:21:54;;;;;;;10.18;6.60;;;;;;;24.64;43.01;97703.16;4979631;28;20018;-72
2023/11/03 11:24:23;;;;;;;8.23;6.07;;;;;;;24.54;43.16;97687.69;4964331;28;20456;-74